sensor_id;sensor_type;location;lat;lon;timestamp;P1;durP1;ratioP1;P2;durP2;ratioP2
71104;SDS011;58760;48.716;8.962;2024-01-15T00:00:28;22.90;;;7.63;;
71104;SDS011;58760;48.716;8.962;2024-01-15T00:02:53;18.98;;;6.88;;
71104;SDS011;58760;48.716;8.962;2024-01-15T00:05:19;21.10;;;7.85;;
71104;SDS011;58760;48.716;8.962;2024-01-15T00:07:45;20.35;;;6.75;;
71104;SDS011;58760;48.716;8.962;2024-01-15T00:10:10;20.40;;;7.18;;
71104;SDS011;58760;48.716;8.962;2024-01-15T00:12:36;18.13;;;6.78;;
71104;SDS011;58760;48.716;8.962;2024-01-15T00:15:01;17.35;;;6.45;;
71104;SDS011;58760;48.716;8.962;2024-01-15T00:17:26;18.30;;;6.28;;
71104;SDS011;58760;48.716;8.962;2024-01-15T00:19:52;22.05;;;7.15;;
71104;SDS011;58760;48.716;8.962;2024-01-15T00:22:17;17.30;;;6.68;;
71104;SDS011;58760;48.716;8.962;2024-01-15T00:24:43;21.25;;;7.40;;
71104;SDS011;58760;48.716;8.962;2024-01-15T00:27:08;18.13;;;6.78;;
71104;SDS011;58760;48.716;8.962;2024-01-15T00:29:34;15.52;;;5.72;;
71104;SDS011;58760;48.716;8.962;2024-01-15T00:31:59;19.45;;;6.50;;
71104;SDS011;58760;48.716;8.962;2024-01-15T00:34:25;18.92;;;6.93;;
71104;SDS011;58760;48.716;8.962;2024-01-15T00:36:50;21.33;;;7.07;;
71104;SDS011;58760;48.716;8.962;2024-01-15T00:39:16;17.73;;;6.72;;
71104;SDS011;58760;48.716;8.962;2024-01-15T00:41:41;18.90;;;6.63;;
71104;SDS011;58760;48.716;8.962;2024-01-15T00:44:07;20.60;;;7.38;;
71104;SDS011;58760;48.716;8.962;2024-01-15T00:46:33;20.58;;;7.32;;
71104;SDS011;58760;48.716;8.962;2024-01-15T00:48:58;19.90;;;6.63;;
71104;SDS011;58760;48.716;8.962;2024-01-15T00:51:24;19.00;;;7.03;;
71104;SDS011;58760;48.716;8.962;2024-01-15T00:53:49;17.20;;;6.05;;
71104;SDS011;58760;48.716;8.962;2024-01-15T00:56:14;19.98;;;6.82;;
71104;SDS011;58760;48.716;8.962;2024-01-15T00:58:40;18.65;;;7.03;;
71104;SDS011;58760;48.716;8.962;2024-01-15T01:01:05;19.50;;;6.53;;
71104;SDS011;58760;48.716;8.962;2024-01-15T01:03:30;19.73;;;7.00;;
71104;SDS011;58760;48.716;8.962;2024-01-15T01:05:56;18.17;;;6.57;;
71104;SDS011;58760;48.716;8.962;2024-01-15T01:08:22;20.25;;;7.10;;
71104;SDS011;58760;48.716;8.962;2024-01-15T01:10:47;16.98;;;6.45;;
71104;SDS011;58760;48.716;8.962;2024-01-15T01:13:12;19.63;;;6.75;;
71104;SDS011;58760;48.716;8.962;2024-01-15T01:15:38;18.98;;;6.78;;
71104;SDS011;58760;48.716;8.962;2024-01-15T01:18:03;19.38;;;6.68;;
71104;SDS011;58760;48.716;8.962;2024-01-15T01:20:30;17.40;;;6.63;;
71104;SDS011;58760;48.716;8.962;2024-01-15T01:22:55;21.13;;;7.18;;
71104;SDS011;58760;48.716;8.962;2024-01-15T01:25:20;18.08;;;6.85;;
71104;SDS011;58760;48.716;8.962;2024-01-15T01:27:46;19.65;;;6.90;;
71104;SDS011;58760;48.716;8.962;2024-01-15T01:30:11;20.30;;;6.78;;
71104;SDS011;58760;48.716;8.962;2024-01-15T01:32:37;19.17;;;7.15;;
71104;SDS011;58760;48.716;8.962;2024-01-15T01:35:02;18.00;;;6.38;;
71104;SDS011;58760;48.716;8.962;2024-01-15T01:37:28;18.88;;;6.70;;
71104;SDS011;58760;48.716;8.962;2024-01-15T01:39:53;18.10;;;6.65;;
71104;SDS011;58760;48.716;8.962;2024-01-15T01:42:19;16.73;;;6.15;;
71104;SDS011;58760;48.716;8.962;2024-01-15T01:44:44;17.90;;;6.68;;
71104;SDS011;58760;48.716;8.962;2024-01-15T01:47:09;17.50;;;6.70;;
71104;SDS011;58760;48.716;8.962;2024-01-15T01:49:35;17.45;;;5.93;;
71104;SDS011;58760;48.716;8.962;2024-01-15T01:52:02;18.02;;;6.43;;
71104;SDS011;58760;48.716;8.962;2024-01-15T01:54:31;15.88;;;5.90;;
71104;SDS011;58760;48.716;8.962;2024-01-15T01:56:57;20.23;;;7.05;;
71104;SDS011;58760;48.716;8.962;2024-01-15T01:59:25;18.73;;;6.45;;
71104;SDS011;58760;48.716;8.962;2024-01-15T02:01:53;18.08;;;6.28;;
71104;SDS011;58760;48.716;8.962;2024-01-15T02:04:19;19.48;;;6.50;;
71104;SDS011;58760;48.716;8.962;2024-01-15T02:06:46;17.45;;;6.85;;
71104;SDS011;58760;48.716;8.962;2024-01-15T02:09:14;20.42;;;7.22;;
71104;SDS011;58760;48.716;8.962;2024-01-15T02:11:40;18.25;;;6.43;;
71104;SDS011;58760;48.716;8.962;2024-01-15T02:14:07;22.55;;;6.93;;
71104;SDS011;58760;48.716;8.962;2024-01-15T02:16:33;20.58;;;6.40;;
71104;SDS011;58760;48.716;8.962;2024-01-15T02:18:59;19.63;;;6.40;;
71104;SDS011;58760;48.716;8.962;2024-01-15T02:21:24;20.02;;;6.78;;
71104;SDS011;58760;48.716;8.962;2024-01-15T02:23:51;18.50;;;6.80;;
71104;SDS011;58760;48.716;8.962;2024-01-15T02:26:16;18.55;;;5.97;;
71104;SDS011;58760;48.716;8.962;2024-01-15T02:28:42;16.55;;;6.35;;
71104;SDS011;58760;48.716;8.962;2024-01-15T02:31:09;20.48;;;6.65;;
71104;SDS011;58760;48.716;8.962;2024-01-15T02:33:34;20.40;;;6.85;;
71104;SDS011;58760;48.716;8.962;2024-01-15T02:36:00;17.42;;;6.35;;
71104;SDS011;58760;48.716;8.962;2024-01-15T02:38:25;18.70;;;6.00;;
71104;SDS011;58760;48.716;8.962;2024-01-15T02:40:51;16.05;;;6.18;;
71104;SDS011;58760;48.716;8.962;2024-01-15T02:43:16;21.48;;;6.45;;
71104;SDS011;58760;48.716;8.962;2024-01-15T02:45:44;16.55;;;6.07;;
71104;SDS011;58760;48.716;8.962;2024-01-15T02:48:09;17.65;;;5.88;;
71104;SDS011;58760;48.716;8.962;2024-01-15T02:50:35;17.67;;;6.47;;
71104;SDS011;58760;48.716;8.962;2024-01-15T02:53:00;22.30;;;6.63;;
71104;SDS011;58760;48.716;8.962;2024-01-15T02:55:26;21.13;;;5.88;;
71104;SDS011;58760;48.716;8.962;2024-01-15T02:57:54;18.38;;;5.63;;
71104;SDS011;58760;48.716;8.962;2024-01-15T03:00:20;20.48;;;6.25;;
71104;SDS011;58760;48.716;8.962;2024-01-15T03:02:45;17.30;;;5.68;;
71104;SDS011;58760;48.716;8.962;2024-01-15T03:05:13;19.00;;;6.38;;
71104;SDS011;58760;48.716;8.962;2024-01-15T03:07:38;17.42;;;6.15;;
71104;SDS011;58760;48.716;8.962;2024-01-15T03:10:04;19.20;;;6.85;;
71104;SDS011;58760;48.716;8.962;2024-01-15T03:12:31;18.08;;;6.85;;
71104;SDS011;58760;48.716;8.962;2024-01-15T03:14:56;18.30;;;6.47;;
71104;SDS011;58760;48.716;8.962;2024-01-15T03:17:22;17.98;;;6.57;;
71104;SDS011;58760;48.716;8.962;2024-01-15T03:19:48;17.65;;;6.18;;
71104;SDS011;58760;48.716;8.962;2024-01-15T03:22:14;18.98;;;6.40;;
71104;SDS011;58760;48.716;8.962;2024-01-15T03:24:40;16.65;;;6.32;;
71104;SDS011;58760;48.716;8.962;2024-01-15T03:27:06;16.90;;;5.95;;
71104;SDS011;58760;48.716;8.962;2024-01-15T03:29:31;19.83;;;6.50;;
71104;SDS011;58760;48.716;8.962;2024-01-15T03:31:57;16.83;;;5.97;;
71104;SDS011;58760;48.716;8.962;2024-01-15T03:34:22;13.35;;;5.07;;
71104;SDS011;58760;48.716;8.962;2024-01-15T03:36:47;14.07;;;5.10;;
71104;SDS011;58760;48.716;8.962;2024-01-15T03:39:13;14.32;;;4.88;;
71104;SDS011;58760;48.716;8.962;2024-01-15T03:41:39;15.50;;;5.43;;
71104;SDS011;58760;48.716;8.962;2024-01-15T03:44:05;15.48;;;5.43;;
71104;SDS011;58760;48.716;8.962;2024-01-15T03:46:30;15.10;;;5.72;;
71104;SDS011;58760;48.716;8.962;2024-01-15T03:48:56;16.40;;;5.05;;
71104;SDS011;58760;48.716;8.962;2024-01-15T03:51:21;16.02;;;5.72;;
71104;SDS011;58760;48.716;8.962;2024-01-15T03:53:47;15.43;;;5.38;;
71104;SDS011;58760;48.716;8.962;2024-01-15T03:56:12;17.85;;;5.32;;
71104;SDS011;58760;48.716;8.962;2024-01-15T03:58:38;17.70;;;5.95;;
71104;SDS011;58760;48.716;8.962;2024-01-15T04:01:03;14.13;;;4.90;;
71104;SDS011;58760;48.716;8.962;2024-01-15T04:03:29;17.05;;;5.93;;
71104;SDS011;58760;48.716;8.962;2024-01-15T04:05:54;19.67;;;6.47;;
71104;SDS011;58760;48.716;8.962;2024-01-15T04:08:20;17.58;;;6.07;;
71104;SDS011;58760;48.716;8.962;2024-01-15T04:10:45;20.48;;;6.78;;
71104;SDS011;58760;48.716;8.962;2024-01-15T04:13:11;21.15;;;6.57;;
71104;SDS011;58760;48.716;8.962;2024-01-15T04:15:36;20.75;;;6.63;;
71104;SDS011;58760;48.716;8.962;2024-01-15T04:18:03;17.92;;;5.97;;
71104;SDS011;58760;48.716;8.962;2024-01-15T04:20:28;15.00;;;6.03;;
71104;SDS011;58760;48.716;8.962;2024-01-15T04:22:54;16.75;;;6.05;;
71104;SDS011;58760;48.716;8.962;2024-01-15T04:25:19;15.82;;;5.75;;
71104;SDS011;58760;48.716;8.962;2024-01-15T04:27:44;20.10;;;6.03;;
71104;SDS011;58760;48.716;8.962;2024-01-15T04:30:10;18.25;;;5.55;;
71104;SDS011;58760;48.716;8.962;2024-01-15T04:32:35;19.33;;;6.68;;
71104;SDS011;58760;48.716;8.962;2024-01-15T04:35:01;17.40;;;6.55;;
71104;SDS011;58760;48.716;8.962;2024-01-15T04:37:26;15.23;;;5.35;;
71104;SDS011;58760;48.716;8.962;2024-01-15T04:39:52;17.27;;;5.70;;
71104;SDS011;58760;48.716;8.962;2024-01-15T04:42:20;13.90;;;5.70;;
71104;SDS011;58760;48.716;8.962;2024-01-15T04:44:46;16.48;;;5.97;;
71104;SDS011;58760;48.716;8.962;2024-01-15T04:47:12;13.93;;;5.57;;
71104;SDS011;58760;48.716;8.962;2024-01-15T04:49:38;14.63;;;5.30;;
71104;SDS011;58760;48.716;8.962;2024-01-15T04:52:03;15.57;;;5.85;;
71104;SDS011;58760;48.716;8.962;2024-01-15T04:54:28;18.17;;;6.22;;
71104;SDS011;58760;48.716;8.962;2024-01-15T04:56:54;17.67;;;5.80;;
71104;SDS011;58760;48.716;8.962;2024-01-15T04:59:19;16.15;;;5.85;;
71104;SDS011;58760;48.716;8.962;2024-01-15T05:01:44;14.57;;;5.35;;
71104;SDS011;58760;48.716;8.962;2024-01-15T05:04:10;18.88;;;6.30;;
71104;SDS011;58760;48.716;8.962;2024-01-15T05:06:35;17.38;;;6.00;;
71104;SDS011;58760;48.716;8.962;2024-01-15T05:09:01;16.88;;;5.63;;
71104;SDS011;58760;48.716;8.962;2024-01-15T05:11:26;15.93;;;6.20;;
71104;SDS011;58760;48.716;8.962;2024-01-15T05:13:51;16.33;;;5.60;;
71104;SDS011;58760;48.716;8.962;2024-01-15T05:16:17;16.55;;;5.68;;
71104;SDS011;58760;48.716;8.962;2024-01-15T05:18:42;14.35;;;5.55;;
71104;SDS011;58760;48.716;8.962;2024-01-15T05:21:08;16.58;;;5.50;;
71104;SDS011;58760;48.716;8.962;2024-01-15T05:23:34;15.57;;;6.38;;
71104;SDS011;58760;48.716;8.962;2024-01-15T05:25:59;15.45;;;6.40;;
71104;SDS011;58760;48.716;8.962;2024-01-15T05:28:24;16.45;;;6.57;;
71104;SDS011;58760;48.716;8.962;2024-01-15T05:30:50;18.30;;;5.32;;
71104;SDS011;58760;48.716;8.962;2024-01-15T05:33:16;17.08;;;6.25;;
71104;SDS011;58760;48.716;8.962;2024-01-15T05:35:42;14.50;;;5.85;;
71104;SDS011;58760;48.716;8.962;2024-01-15T05:38:07;16.65;;;6.38;;
71104;SDS011;58760;48.716;8.962;2024-01-15T05:40:33;15.45;;;5.95;;
71104;SDS011;58760;48.716;8.962;2024-01-15T05:42:58;17.63;;;5.85;;
71104;SDS011;58760;48.716;8.962;2024-01-15T05:45:25;14.35;;;5.65;;
71104;SDS011;58760;48.716;8.962;2024-01-15T05:47:52;14.45;;;5.57;;
71104;SDS011;58760;48.716;8.962;2024-01-15T05:50:17;16.30;;;6.20;;
71104;SDS011;58760;48.716;8.962;2024-01-15T05:52:43;14.50;;;5.55;;
71104;SDS011;58760;48.716;8.962;2024-01-15T05:55:08;13.70;;;5.47;;
71104;SDS011;58760;48.716;8.962;2024-01-15T05:57:34;14.90;;;5.90;;
71104;SDS011;58760;48.716;8.962;2024-01-15T06:00:00;16.48;;;6.15;;
71104;SDS011;58760;48.716;8.962;2024-01-15T06:02:25;18.85;;;5.85;;
71104;SDS011;58760;48.716;8.962;2024-01-15T06:04:50;13.70;;;5.03;;
71104;SDS011;58760;48.716;8.962;2024-01-15T06:07:16;11.80;;;4.63;;
71104;SDS011;58760;48.716;8.962;2024-01-15T06:09:41;16.45;;;4.82;;
71104;SDS011;58760;48.716;8.962;2024-01-15T06:12:07;11.48;;;4.93;;
71104;SDS011;58760;48.716;8.962;2024-01-15T06:14:32;13.80;;;5.72;;
71104;SDS011;58760;48.716;8.962;2024-01-15T06:16:58;16.88;;;5.28;;
71104;SDS011;58760;48.716;8.962;2024-01-15T06:19:23;10.77;;;4.47;;
71104;SDS011;58760;48.716;8.962;2024-01-15T06:21:49;12.82;;;4.95;;
71104;SDS011;58760;48.716;8.962;2024-01-15T06:24:14;14.77;;;5.22;;
71104;SDS011;58760;48.716;8.962;2024-01-15T06:26:40;12.75;;;5.13;;
71104;SDS011;58760;48.716;8.962;2024-01-15T06:29:06;15.32;;;5.05;;
71104;SDS011;58760;48.716;8.962;2024-01-15T06:31:31;14.85;;;5.10;;
71104;SDS011;58760;48.716;8.962;2024-01-15T06:33:57;15.88;;;5.40;;
71104;SDS011;58760;48.716;8.962;2024-01-15T06:36:23;11.73;;;4.45;;
71104;SDS011;58760;48.716;8.962;2024-01-15T06:38:48;11.98;;;5.43;;
71104;SDS011;58760;48.716;8.962;2024-01-15T06:41:14;11.75;;;4.82;;
71104;SDS011;58760;48.716;8.962;2024-01-15T06:43:39;14.55;;;5.78;;
71104;SDS011;58760;48.716;8.962;2024-01-15T06:46:05;14.73;;;6.18;;
71104;SDS011;58760;48.716;8.962;2024-01-15T06:48:30;13.68;;;5.80;;
71104;SDS011;58760;48.716;8.962;2024-01-15T06:50:56;12.48;;;5.40;;
71104;SDS011;58760;48.716;8.962;2024-01-15T06:53:21;14.25;;;5.68;;
71104;SDS011;58760;48.716;8.962;2024-01-15T06:55:47;13.95;;;5.88;;
71104;SDS011;58760;48.716;8.962;2024-01-15T06:58:14;12.57;;;5.05;;
71104;SDS011;58760;48.716;8.962;2024-01-15T07:00:39;12.57;;;5.13;;
71104;SDS011;58760;48.716;8.962;2024-01-15T07:03:05;12.95;;;5.05;;
71104;SDS011;58760;48.716;8.962;2024-01-15T07:05:31;14.65;;;5.68;;
71104;SDS011;58760;48.716;8.962;2024-01-15T07:07:57;12.40;;;4.90;;
71104;SDS011;58760;48.716;8.962;2024-01-15T07:10:22;12.45;;;4.78;;
71104;SDS011;58760;48.716;8.962;2024-01-15T07:12:48;13.48;;;5.32;;
71104;SDS011;58760;48.716;8.962;2024-01-15T07:15:13;14.40;;;5.40;;
71104;SDS011;58760;48.716;8.962;2024-01-15T07:17:39;16.00;;;5.32;;
71104;SDS011;58760;48.716;8.962;2024-01-15T07:20:08;12.52;;;5.20;;
71104;SDS011;58760;48.716;8.962;2024-01-15T07:22:37;17.30;;;5.68;;
71104;SDS011;58760;48.716;8.962;2024-01-15T07:25:02;16.48;;;6.65;;
71104;SDS011;58760;48.716;8.962;2024-01-15T07:27:30;17.30;;;6.43;;
71104;SDS011;58760;48.716;8.962;2024-01-15T07:29:56;16.60;;;6.28;;
71104;SDS011;58760;48.716;8.962;2024-01-15T07:32:23;16.98;;;6.57;;
71104;SDS011;58760;48.716;8.962;2024-01-15T07:34:48;15.23;;;6.38;;
71104;SDS011;58760;48.716;8.962;2024-01-15T07:37:14;18.85;;;6.85;;
71104;SDS011;58760;48.716;8.962;2024-01-15T07:39:39;17.33;;;6.90;;
71104;SDS011;58760;48.716;8.962;2024-01-15T07:42:05;17.88;;;6.22;;
71104;SDS011;58760;48.716;8.962;2024-01-15T07:44:30;16.60;;;6.32;;
71104;SDS011;58760;48.716;8.962;2024-01-15T07:46:56;14.77;;;5.53;;
71104;SDS011;58760;48.716;8.962;2024-01-15T07:49:21;14.40;;;5.65;;
71104;SDS011;58760;48.716;8.962;2024-01-15T07:51:48;13.57;;;5.53;;
71104;SDS011;58760;48.716;8.962;2024-01-15T07:54:14;14.05;;;5.65;;
71104;SDS011;58760;48.716;8.962;2024-01-15T07:56:59;13.07;;;5.47;;
71104;SDS011;58760;48.716;8.962;2024-01-15T07:59:26;14.50;;;4.90;;
71104;SDS011;58760;48.716;8.962;2024-01-15T08:01:52;14.65;;;5.32;;
71104;SDS011;58760;48.716;8.962;2024-01-15T08:04:18;11.05;;;4.55;;
71104;SDS011;58760;48.716;8.962;2024-01-15T08:06:44;11.80;;;4.43;;
71104;SDS011;58760;48.716;8.962;2024-01-15T08:09:10;9.93;;;4.10;;
71104;SDS011;58760;48.716;8.962;2024-01-15T08:11:36;12.52;;;4.22;;
71104;SDS011;58760;48.716;8.962;2024-01-15T08:14:04;11.48;;;4.15;;
71104;SDS011;58760;48.716;8.962;2024-01-15T08:16:29;11.63;;;4.32;;
71104;SDS011;58760;48.716;8.962;2024-01-15T08:18:54;11.30;;;4.32;;
71104;SDS011;58760;48.716;8.962;2024-01-15T08:21:20;11.43;;;4.53;;
71104;SDS011;58760;48.716;8.962;2024-01-15T08:23:45;10.70;;;4.05;;
71104;SDS011;58760;48.716;8.962;2024-01-15T08:26:10;14.88;;;4.68;;
71104;SDS011;58760;48.716;8.962;2024-01-15T08:28:36;8.82;;;3.58;;
71104;SDS011;58760;48.716;8.962;2024-01-15T08:31:02;10.13;;;3.70;;
71104;SDS011;58760;48.716;8.962;2024-01-15T08:33:28;10.80;;;3.88;;
71104;SDS011;58760;48.716;8.962;2024-01-15T08:35:53;10.75;;;4.07;;
71104;SDS011;58760;48.716;8.962;2024-01-15T08:38:19;11.02;;;4.10;;
71104;SDS011;58760;48.716;8.962;2024-01-15T08:40:44;11.52;;;3.65;;
71104;SDS011;58760;48.716;8.962;2024-01-15T08:43:10;10.23;;;3.78;;
71104;SDS011;58760;48.716;8.962;2024-01-15T08:45:35;9.90;;;3.60;;
71104;SDS011;58760;48.716;8.962;2024-01-15T08:48:00;12.82;;;4.25;;
71104;SDS011;58760;48.716;8.962;2024-01-15T08:50:27;8.10;;;2.85;;
71104;SDS011;58760;48.716;8.962;2024-01-15T08:52:52;9.57;;;3.58;;
71104;SDS011;58760;48.716;8.962;2024-01-15T08:55:18;8.98;;;3.50;;
71104;SDS011;58760;48.716;8.962;2024-01-15T08:57:43;8.25;;;3.00;;
71104;SDS011;58760;48.716;8.962;2024-01-15T09:00:09;10.88;;;3.88;;
71104;SDS011;58760;48.716;8.962;2024-01-15T09:02:35;10.75;;;3.70;;
71104;SDS011;58760;48.716;8.962;2024-01-15T09:05:01;10.80;;;3.42;;
71104;SDS011;58760;48.716;8.962;2024-01-15T09:07:26;11.98;;;3.80;;
71104;SDS011;58760;48.716;8.962;2024-01-15T09:09:52;9.63;;;3.50;;
71104;SDS011;58760;48.716;8.962;2024-01-15T09:12:18;11.07;;;3.22;;
71104;SDS011;58760;48.716;8.962;2024-01-15T09:14:43;11.27;;;3.50;;
71104;SDS011;58760;48.716;8.962;2024-01-15T09:17:09;8.40;;;3.33;;
71104;SDS011;58760;48.716;8.962;2024-01-15T09:19:34;8.27;;;3.08;;
71104;SDS011;58760;48.716;8.962;2024-01-15T09:22:00;9.52;;;3.63;;
71104;SDS011;58760;48.716;8.962;2024-01-15T09:24:26;8.82;;;3.20;;
71104;SDS011;58760;48.716;8.962;2024-01-15T09:26:51;9.43;;;3.13;;
71104;SDS011;58760;48.716;8.962;2024-01-15T09:29:17;10.10;;;2.97;;
71104;SDS011;58760;48.716;8.962;2024-01-15T09:31:43;10.98;;;3.42;;
71104;SDS011;58760;48.716;8.962;2024-01-15T09:34:08;8.73;;;3.00;;
71104;SDS011;58760;48.716;8.962;2024-01-15T09:36:38;10.25;;;3.50;;
71104;SDS011;58760;48.716;8.962;2024-01-15T09:39:05;7.78;;;3.33;;
71104;SDS011;58760;48.716;8.962;2024-01-15T09:41:33;9.85;;;3.08;;
71104;SDS011;58760;48.716;8.962;2024-01-15T09:44:00;9.52;;;2.88;;
71104;SDS011;58760;48.716;8.962;2024-01-15T09:46:27;9.82;;;3.05;;
71104;SDS011;58760;48.716;8.962;2024-01-15T09:48:53;9.15;;;3.22;;
71104;SDS011;58760;48.716;8.962;2024-01-15T09:51:18;10.90;;;3.03;;
71104;SDS011;58760;48.716;8.962;2024-01-15T09:53:45;9.95;;;3.30;;
71104;SDS011;58760;48.716;8.962;2024-01-15T09:56:11;8.25;;;2.97;;
71104;SDS011;58760;48.716;8.962;2024-01-15T09:58:38;8.20;;;3.03;;
71104;SDS011;58760;48.716;8.962;2024-01-15T10:01:03;9.75;;;3.35;;
71104;SDS011;58760;48.716;8.962;2024-01-15T10:03:29;9.15;;;3.35;;
71104;SDS011;58760;48.716;8.962;2024-01-15T10:05:55;11.18;;;3.40;;
71104;SDS011;58760;48.716;8.962;2024-01-15T10:08:24;9.20;;;3.10;;
71104;SDS011;58760;48.716;8.962;2024-01-15T10:10:50;8.52;;;3.10;;
71104;SDS011;58760;48.716;8.962;2024-01-15T10:13:16;9.68;;;3.10;;
71104;SDS011;58760;48.716;8.962;2024-01-15T10:15:45;7.50;;;2.80;;
71104;SDS011;58760;48.716;8.962;2024-01-15T10:18:12;7.68;;;3.10;;
71104;SDS011;58760;48.716;8.962;2024-01-15T10:20:37;8.13;;;3.20;;
71104;SDS011;58760;48.716;8.962;2024-01-15T10:23:03;9.18;;;3.20;;
71104;SDS011;58760;48.716;8.962;2024-01-15T10:25:29;7.07;;;2.70;;
71104;SDS011;58760;48.716;8.962;2024-01-15T10:28:02;10.40;;;2.72;;
71104;SDS011;58760;48.716;8.962;2024-01-15T10:30:29;8.20;;;2.95;;
71104;SDS011;58760;48.716;8.962;2024-01-15T10:32:58;8.45;;;2.75;;
71104;SDS011;58760;48.716;8.962;2024-01-15T10:35:29;8.90;;;2.75;;
71104;SDS011;58760;48.716;8.962;2024-01-15T10:37:55;9.02;;;2.72;;
71104;SDS011;58760;48.716;8.962;2024-01-15T10:40:21;8.30;;;2.83;;
71104;SDS011;58760;48.716;8.962;2024-01-15T10:42:46;8.60;;;2.80;;
71104;SDS011;58760;48.716;8.962;2024-01-15T10:45:13;11.63;;;3.50;;
71104;SDS011;58760;48.716;8.962;2024-01-15T10:47:39;8.82;;;3.03;;
71104;SDS011;58760;48.716;8.962;2024-01-15T10:50:06;8.85;;;3.10;;
71104;SDS011;58760;48.716;8.962;2024-01-15T10:52:36;9.07;;;2.72;;
71104;SDS011;58760;48.716;8.962;2024-01-15T10:55:03;9.70;;;3.25;;
71104;SDS011;58760;48.716;8.962;2024-01-15T10:57:29;8.27;;;3.08;;
71104;SDS011;58760;48.716;8.962;2024-01-15T10:59:55;8.20;;;3.00;;
71104;SDS011;58760;48.716;8.962;2024-01-15T11:02:20;8.30;;;3.25;;
71104;SDS011;58760;48.716;8.962;2024-01-15T11:04:47;10.35;;;3.53;;
71104;SDS011;58760;48.716;8.962;2024-01-15T11:07:13;11.13;;;3.85;;
71104;SDS011;58760;48.716;8.962;2024-01-15T11:09:39;11.63;;;3.58;;
71104;SDS011;58760;48.716;8.962;2024-01-15T11:12:09;8.90;;;3.22;;
71104;SDS011;58760;48.716;8.962;2024-01-15T11:17:03;8.95;;;3.47;;
71104;SDS011;58760;48.716;8.962;2024-01-15T11:19:36;10.73;;;3.42;;
71104;SDS011;58760;48.716;8.962;2024-01-15T11:22:05;9.15;;;3.42;;
71104;SDS011;58760;48.716;8.962;2024-01-15T11:24:38;9.18;;;3.13;;
71104;SDS011;58760;48.716;8.962;2024-01-15T11:27:05;8.73;;;3.25;;
71104;SDS011;58760;48.716;8.962;2024-01-15T11:29:36;9.00;;;3.50;;
71104;SDS011;58760;48.716;8.962;2024-01-15T11:37:29;9.40;;;3.28;;
71104;SDS011;58760;48.716;8.962;2024-01-15T11:42:46;8.88;;;3.40;;
71104;SDS011;58760;48.716;8.962;2024-01-15T11:45:13;8.10;;;3.00;;
71104;SDS011;58760;48.716;8.962;2024-01-15T11:50:21;10.73;;;3.75;;
71104;SDS011;58760;48.716;8.962;2024-01-15T11:52:50;10.20;;;3.67;;
71104;SDS011;58760;48.716;8.962;2024-01-15T11:58:01;8.82;;;3.25;;
71104;SDS011;58760;48.716;8.962;2024-01-15T12:00:28;9.23;;;3.75;;
71104;SDS011;58760;48.716;8.962;2024-01-15T12:02:54;11.85;;;3.72;;
71104;SDS011;58760;48.716;8.962;2024-01-15T12:05:20;10.90;;;3.65;;
71104;SDS011;58760;48.716;8.962;2024-01-15T12:07:47;11.40;;;4.30;;
71104;SDS011;58760;48.716;8.962;2024-01-15T12:10:15;10.77;;;3.83;;
71104;SDS011;58760;48.716;8.962;2024-01-15T12:15:34;11.85;;;4.25;;
71104;SDS011;58760;48.716;8.962;2024-01-15T12:18:01;12.20;;;4.63;;
71104;SDS011;58760;48.716;8.962;2024-01-15T12:20:28;11.80;;;4.35;;
71104;SDS011;58760;48.716;8.962;2024-01-15T12:22:54;9.18;;;3.90;;
71104;SDS011;58760;48.716;8.962;2024-01-15T12:25:21;11.98;;;3.95;;
71104;SDS011;58760;48.716;8.962;2024-01-15T12:27:49;12.40;;;4.03;;
71104;SDS011;58760;48.716;8.962;2024-01-15T12:30:16;11.13;;;3.40;;
71104;SDS011;58760;48.716;8.962;2024-01-15T12:32:41;9.55;;;3.20;;
71104;SDS011;58760;48.716;8.962;2024-01-15T12:35:08;10.05;;;3.88;;
71104;SDS011;58760;48.716;8.962;2024-01-15T12:37:35;9.32;;;3.80;;
71104;SDS011;58760;48.716;8.962;2024-01-15T12:40:03;10.57;;;3.88;;
71104;SDS011;58760;48.716;8.962;2024-01-15T12:42:31;14.00;;;4.03;;
71104;SDS011;58760;48.716;8.962;2024-01-15T12:44:57;10.52;;;3.38;;
71104;SDS011;58760;48.716;8.962;2024-01-15T12:47:22;12.18;;;3.83;;
71104;SDS011;58760;48.716;8.962;2024-01-15T12:49:48;13.90;;;4.05;;
71104;SDS011;58760;48.716;8.962;2024-01-15T12:52:18;9.75;;;3.75;;
71104;SDS011;58760;48.716;8.962;2024-01-15T12:54:44;9.40;;;3.00;;
71104;SDS011;58760;48.716;8.962;2024-01-15T12:57:10;8.68;;;3.38;;
71104;SDS011;58760;48.716;8.962;2024-01-15T12:59:35;8.40;;;3.05;;
71104;SDS011;58760;48.716;8.962;2024-01-15T13:02:00;9.60;;;3.08;;
71104;SDS011;58760;48.716;8.962;2024-01-15T13:04:26;7.43;;;3.05;;
71104;SDS011;58760;48.716;8.962;2024-01-15T13:06:51;9.57;;;3.20;;
71104;SDS011;58760;48.716;8.962;2024-01-15T13:09:17;9.05;;;3.10;;
71104;SDS011;58760;48.716;8.962;2024-01-15T13:11:45;9.13;;;2.85;;
71104;SDS011;58760;48.716;8.962;2024-01-15T13:14:11;8.48;;;3.05;;
71104;SDS011;58760;48.716;8.962;2024-01-15T13:16:38;8.38;;;3.03;;
71104;SDS011;58760;48.716;8.962;2024-01-15T13:19:07;9.82;;;2.92;;
71104;SDS011;58760;48.716;8.962;2024-01-15T13:21:36;8.18;;;2.63;;
71104;SDS011;58760;48.716;8.962;2024-01-15T13:24:02;6.45;;;2.78;;
71104;SDS011;58760;48.716;8.962;2024-01-15T13:26:28;6.93;;;2.55;;
71104;SDS011;58760;48.716;8.962;2024-01-15T13:28:54;7.25;;;2.70;;
71104;SDS011;58760;48.716;8.962;2024-01-15T13:31:19;9.45;;;2.35;;
71104;SDS011;58760;48.716;8.962;2024-01-15T13:33:45;5.80;;;2.38;;
71104;SDS011;58760;48.716;8.962;2024-01-15T13:36:11;7.80;;;2.35;;
71104;SDS011;58760;48.716;8.962;2024-01-15T13:38:36;7.28;;;2.65;;
71104;SDS011;58760;48.716;8.962;2024-01-15T13:41:04;4.72;;;2.10;;
71104;SDS011;58760;48.716;8.962;2024-01-15T13:43:29;7.82;;;2.15;;
71104;SDS011;58760;48.716;8.962;2024-01-15T13:45:56;6.03;;;1.85;;
71104;SDS011;58760;48.716;8.962;2024-01-15T13:48:21;6.10;;;2.10;;
71104;SDS011;58760;48.716;8.962;2024-01-15T13:50:46;6.70;;;2.35;;
71104;SDS011;58760;48.716;8.962;2024-01-15T13:53:12;8.13;;;2.20;;
71104;SDS011;58760;48.716;8.962;2024-01-15T13:55:37;5.80;;;2.25;;
71104;SDS011;58760;48.716;8.962;2024-01-15T13:58:02;6.10;;;2.20;;
71104;SDS011;58760;48.716;8.962;2024-01-15T14:00:30;5.47;;;2.28;;
71104;SDS011;58760;48.716;8.962;2024-01-15T14:02:56;6.72;;;2.60;;
71104;SDS011;58760;48.716;8.962;2024-01-15T14:05:22;5.57;;;2.10;;
71104;SDS011;58760;48.716;8.962;2024-01-15T14:07:48;6.18;;;2.17;;
71104;SDS011;58760;48.716;8.962;2024-01-15T14:10:13;6.40;;;2.53;;
71104;SDS011;58760;48.716;8.962;2024-01-15T14:12:39;5.80;;;2.20;;
71104;SDS011;58760;48.716;8.962;2024-01-15T14:15:05;7.00;;;2.40;;
71104;SDS011;58760;48.716;8.962;2024-01-15T14:17:31;6.75;;;2.72;;
71104;SDS011;58760;48.716;8.962;2024-01-15T14:19:56;9.23;;;2.20;;
71104;SDS011;58760;48.716;8.962;2024-01-15T14:22:22;5.57;;;2.17;;
71104;SDS011;58760;48.716;8.962;2024-01-15T14:24:48;7.45;;;2.67;;
71104;SDS011;58760;48.716;8.962;2024-01-15T14:27:14;7.45;;;2.38;;
71104;SDS011;58760;48.716;8.962;2024-01-15T14:29:39;6.78;;;2.28;;
71104;SDS011;58760;48.716;8.962;2024-01-15T14:32:05;4.63;;;1.83;;
71104;SDS011;58760;48.716;8.962;2024-01-15T14:34:31;6.03;;;2.00;;
71104;SDS011;58760;48.716;8.962;2024-01-15T14:36:56;6.75;;;1.98;;
71104;SDS011;58760;48.716;8.962;2024-01-15T14:39:22;4.15;;;1.77;;
71104;SDS011;58760;48.716;8.962;2024-01-15T14:41:48;3.83;;;1.58;;
71104;SDS011;58760;48.716;8.962;2024-01-15T14:44:13;5.68;;;1.83;;
71104;SDS011;58760;48.716;8.962;2024-01-15T14:46:39;4.97;;;1.90;;
71104;SDS011;58760;48.716;8.962;2024-01-15T14:49:05;4.35;;;1.92;;